Terminal Aerodrome Forecast
Issued by NWS Sioux Falls, SD

Home | Current Version | Previous Version | Graphics & Text | Print | Product List | Glossary On
Versions: 1 2 3 4 5 6 7 8 9 10 11 12 13 14 15 16 17 18 19 20
000
FTUS43 KFSD 232340
TAFFSD
TAF
KFSD 232340Z 2400/2424 35017G24KT P6SM OVC011
     FM240400 33014KT P6SM OVC012
     FM241300 32012KT P6SM OVC009
     FM241800 30008KT P6SM OVC012
     FM242200 21004KT P6SM SCT012 BKN200=

USA.gov is the U.S. government's official web portal to all federal, state and local government web resources and services.